createdAt,value
2023-01-19T00:00:41.840Z,90.67
2023-01-19T00:03:15.908Z,88.00
2023-01-19T00:05:43.950Z,83.97
2023-01-19T00:08:17.650Z,78.90
2023-01-19T00:10:45.734Z,67.33
2023-01-19T00:13:12.930Z,70.10
2023-01-19T00:15:40.129Z,70.60
2023-01-19T00:18:09.051Z,71.37
2023-01-19T00:20:36.946Z,68.70
2023-01-19T00:23:04.792Z,70.63
2023-01-19T00:25:32.115Z,63.67
2023-01-19T00:28:01.522Z,68.93
2023-01-19T00:30:29.007Z,83.77
2023-01-19T00:32:56.315Z,96.70
2023-01-19T00:35:23.462Z,95.77
2023-01-19T00:37:50.648Z,95.17
2023-01-19T00:40:18.144Z,92.63
2023-01-19T00:42:45.402Z,94.20
2023-01-19T00:45:13.406Z,97.53
2023-01-19T00:47:40.681Z,95.03
2023-01-19T00:50:08.626Z,100.20
2023-01-19T00:52:35.803Z,97.90
2023-01-19T00:55:02.942Z,97.70
2023-01-19T00:57:30.115Z,95.63
2023-01-19T00:59:57.359Z,93.30
2023-01-19T01:02:24.711Z,92.27
2023-01-19T01:04:55.015Z,95.60
2023-01-19T01:07:22.626Z,91.33
2023-01-19T01:09:49.761Z,93.83
2023-01-19T01:12:16.901Z,98.37
2023-01-19T01:14:44.120Z,96.57
2023-01-19T01:17:11.698Z,99.80
2023-01-19T01:19:39.059Z,96.73
2023-01-19T01:22:06.242Z,99.43
2023-01-19T01:24:33.449Z,96.47
2023-01-19T01:27:00.629Z,94.67
2023-01-19T01:29:27.826Z,95.50
2023-01-19T01:31:55.047Z,98.23
2023-01-19T01:34:22.258Z,97.53
2023-01-19T01:36:49.454Z,99.30
2023-01-19T01:39:16.607Z,99.30
2023-01-19T01:41:43.750Z,95.00
2023-01-19T01:44:30.720Z,94.60
2023-01-19T01:46:57.905Z,92.90
2023-01-19T01:49:25.042Z,95.07
2023-01-19T01:51:52.699Z,92.67
2023-01-19T01:54:21.717Z,90.97
2023-01-19T01:56:49.512Z,89.33
2023-01-19T01:59:26.012Z,94.17
2023-01-19T02:02:19.691Z,92.03
2023-01-19T02:04:51.707Z,113.57
2023-01-19T02:07:39.844Z,98.10
2023-01-19T02:10:25.802Z,98.43
2023-01-19T02:13:11.673Z,101.97
2023-01-19T02:15:38.860Z,107.33
2023-01-19T02:18:06.021Z,104.80
2023-01-19T02:20:33.163Z,99.57
2023-01-19T02:23:01.746Z,94.63
2023-01-19T02:25:29.084Z,99.57
2023-01-19T02:27:56.335Z,95.47
2023-01-19T02:30:23.565Z,94.27
2023-01-19T02:32:50.703Z,96.63
2023-01-19T02:35:17.885Z,90.50
2023-01-19T02:37:45.062Z,85.93
2023-01-19T02:40:15.749Z,82.80
2023-01-19T02:42:43.836Z,79.57
2023-01-19T02:45:12.709Z,80.60
2023-01-19T02:47:40.346Z,79.53
2023-01-19T02:50:27.530Z,85.33
2023-01-19T02:52:55.485Z,78.03
2023-01-19T02:55:23.011Z,78.87
2023-01-19T02:58:10.815Z,77.70
2023-01-19T03:00:41.057Z,78.07
2023-01-19T03:03:23.594Z,80.33
2023-01-19T03:05:56.725Z,85.93
2023-01-19T03:08:23.875Z,75.43
2023-01-19T03:10:59.822Z,74.33
2023-01-19T03:13:30.082Z,74.10
2023-01-19T03:16:03.201Z,76.97
2023-01-19T03:18:30.447Z,80.30
2023-01-19T03:20:58.601Z,79.17
2023-01-19T03:23:26.830Z,88.83
2023-01-19T03:25:54.028Z,87.33
2023-01-19T03:28:21.350Z,89.17
2023-01-19T03:30:49.143Z,89.53
2023-01-19T03:33:22.222Z,90.33
2023-01-19T03:35:50.198Z,87.73
2023-01-19T03:38:17.687Z,91.43
2023-01-19T03:40:44.885Z,92.13
2023-01-19T03:43:12.047Z,90.00
2023-01-19T03:45:39.478Z,81.47
2023-01-19T03:48:06.770Z,77.97
2023-01-19T03:50:33.931Z,72.83
2023-01-19T03:53:06.981Z,74.40
2023-01-19T03:55:34.581Z,75.43
2023-01-19T03:58:01.750Z,70.53
2023-01-19T04:00:29.109Z,66.33
2023-01-19T04:02:56.394Z,60.63
2023-01-19T04:05:23.610Z,65.77
2023-01-19T04:07:51.284Z,67.33
2023-01-19T04:10:18.869Z,87.00
2023-01-19T04:12:46.092Z,96.00
2023-01-19T04:15:13.433Z,96.70
2023-01-19T04:17:40.676Z,88.23
2023-01-19T04:20:08.155Z,82.53
2023-01-19T04:22:35.646Z,82.60
2023-01-19T04:25:03.327Z,78.13
2023-01-19T04:27:30.473Z,78.17
2023-01-19T04:29:57.670Z,84.07
2023-01-19T04:32:24.878Z,96.67
2023-01-19T04:34:52.062Z,99.23
2023-01-19T04:37:19.238Z,96.53
2023-01-19T04:39:46.375Z,92.70
2023-01-19T04:42:32.431Z,90.33
2023-01-19T04:44:59.579Z,95.23
2023-01-19T04:47:26.733Z,91.90
2023-01-19T04:49:53.927Z,87.23
2023-01-19T04:52:21.061Z,91.50
2023-01-19T04:54:48.515Z,89.20
2023-01-19T04:57:15.722Z,80.10
2023-01-19T04:59:42.878Z,45.23
2023-01-19T05:02:10.077Z,47.73
2023-01-19T05:04:37.295Z,57.67
2023-01-19T05:07:04.440Z,47.23
2023-01-19T05:09:31.622Z,62.77
2023-01-19T05:11:58.810Z,62.23
2023-01-19T05:14:26.096Z,61.63
2023-01-19T05:16:53.229Z,55.57
2023-01-19T05:19:21.194Z,55.23
2023-01-19T05:21:48.386Z,56.20
2023-01-19T05:24:15.635Z,55.30
2023-01-19T05:26:43.517Z,54.63
2023-01-19T05:29:10.668Z,49.57
2023-01-19T05:31:37.927Z,50.47
2023-01-19T05:34:05.287Z,46.93
2023-01-19T05:36:32.703Z,48.90
2023-01-19T05:38:59.844Z,48.63
2023-01-19T05:41:27.022Z,48.90
2023-01-19T05:43:54.198Z,53.57
2023-01-19T05:46:21.395Z,58.43
2023-01-19T05:48:48.796Z,59.43
2023-01-19T05:51:15.908Z,66.27
2023-01-19T05:53:43.104Z,62.67
2023-01-19T05:56:10.380Z,64.33
2023-01-19T05:58:39.389Z,64.33
2023-01-19T06:01:07.029Z,69.73
2023-01-19T06:03:34.328Z,68.50
2023-01-19T06:06:01.670Z,70.70
2023-01-19T06:08:28.876Z,72.90
2023-01-19T06:10:56.474Z,80.67
2023-01-19T06:13:23.630Z,76.40
2023-01-19T06:15:56.549Z,71.20
2023-01-19T06:18:23.749Z,74.20
2023-01-19T06:20:52.156Z,69.30
2023-01-19T06:23:21.000Z,74.43
2023-01-19T06:25:48.143Z,73.07
2023-01-19T06:28:15.287Z,69.57
2023-01-19T06:30:42.482Z,68.07
2023-01-19T06:33:09.629Z,74.70
2023-01-19T06:35:36.944Z,74.77
2023-01-19T06:38:04.149Z,73.80
2023-01-19T06:40:31.314Z,70.37
2023-01-19T06:42:58.817Z,65.97
2023-01-19T06:45:26.172Z,73.23
2023-01-19T06:47:53.370Z,72.27
2023-01-19T06:50:20.661Z,74.13
2023-01-19T06:52:50.618Z,72.80
2023-01-19T06:55:17.830Z,70.57
2023-01-19T06:57:45.110Z,74.03
2023-01-19T07:00:13.045Z,78.53
2023-01-19T07:02:43.481Z,69.67
2023-01-19T07:05:11.836Z,70.10
2023-01-19T07:07:39.763Z,70.30
2023-01-19T07:10:11.830Z,69.27
2023-01-19T07:12:39.544Z,72.70
2023-01-19T07:15:07.408Z,73.50
2023-01-19T07:17:34.554Z,65.63
2023-01-19T07:20:01.888Z,62.07
2023-01-19T07:22:29.045Z,67.27
2023-01-19T07:24:56.233Z,66.77
2023-01-19T07:27:23.362Z,68.53
2023-01-19T07:29:50.654Z,65.40
2023-01-19T07:32:17.778Z,65.30
2023-01-19T07:34:45.454Z,59.77
2023-01-19T07:37:13.192Z,66.33
2023-01-19T07:39:40.339Z,70.10
2023-01-19T07:42:07.651Z,76.50
2023-01-19T07:44:34.836Z,80.77
2023-01-19T07:47:01.980Z,82.47
2023-01-19T07:49:29.180Z,85.23
2023-01-19T07:51:56.460Z,65.73
2023-01-19T07:54:23.686Z,49.00
2023-01-19T07:56:50.848Z,50.73
2023-01-19T07:59:18.018Z,51.30
2023-01-19T08:01:46.435Z,70.10
2023-01-19T08:04:13.760Z,80.80
2023-01-19T08:06:41.116Z,70.67
2023-01-19T08:09:08.489Z,70.90
2023-01-19T08:11:35.650Z,77.47
2023-01-19T08:14:02.971Z,74.80
2023-01-19T08:16:30.130Z,65.00
2023-01-19T08:18:57.347Z,63.40
2023-01-19T08:21:24.547Z,64.63
2023-01-19T08:23:58.243Z,65.73
2023-01-19T08:26:29.826Z,64.00
2023-01-19T08:28:57.767Z,63.23
2023-01-19T08:31:25.332Z,58.70
2023-01-19T08:33:52.774Z,52.80
2023-01-19T08:36:20.266Z,48.60
2023-01-19T08:38:47.525Z,43.10
2023-01-19T08:41:16.496Z,44.73
2023-01-19T08:43:45.458Z,34.90
2023-01-19T08:46:16.925Z,35.37
2023-01-19T08:48:45.230Z,48.13
2023-01-19T08:51:15.883Z,52.33
2023-01-19T08:53:43.302Z,49.53
2023-01-19T08:56:14.324Z,52.90
2023-01-19T08:58:44.711Z,55.13
2023-01-19T09:01:14.859Z,39.20
2023-01-19T09:03:42.133Z,21.03
2023-01-19T09:06:09.418Z,12.07
2023-01-19T09:08:36.573Z,11.17
2023-01-19T09:11:05.217Z,8.83
2023-01-19T09:13:32.380Z,9.00
2023-01-19T09:15:59.931Z,8.93
2023-01-19T09:18:27.133Z,39.00
2023-01-19T09:20:54.947Z,48.27
2023-01-19T09:23:22.741Z,53.87
2023-01-19T09:25:50.007Z,52.97
2023-01-19T09:28:17.738Z,63.97
2023-01-19T09:30:45.065Z,66.83
2023-01-19T09:33:13.277Z,72.27
2023-01-19T09:35:40.670Z,61.13
2023-01-19T09:38:08.872Z,58.87
2023-01-19T09:40:36.834Z,61.17
2023-01-19T09:43:14.176Z,21.83
2023-01-19T09:45:59.884Z,14.90
2023-01-19T09:48:29.900Z,12.63
2023-01-19T09:50:57.355Z,12.40
2023-01-19T09:53:43.360Z,11.20
2023-01-19T09:56:14.425Z,10.70
2023-01-19T09:58:41.839Z,10.73
2023-01-19T10:01:21.250Z,12.93
2023-01-19T10:03:48.436Z,12.73
2023-01-19T10:06:17.349Z,16.03
2023-01-19T10:08:56.586Z,17.13
2023-01-19T10:11:26.318Z,29.43
2023-01-19T10:13:54.257Z,32.70
2023-01-19T10:16:21.483Z,29.03
2023-01-19T10:18:51.564Z,27.53
2023-01-19T10:21:18.738Z,28.63
2023-01-19T10:23:59.414Z,32.60
2023-01-19T10:26:39.617Z,38.17
2023-01-19T10:29:27.191Z,38.23
2023-01-19T10:31:56.691Z,41.93
2023-01-19T10:34:24.035Z,37.57
2023-01-19T10:36:59.629Z,32.57
2023-01-19T10:39:26.826Z,35.03
2023-01-19T10:41:54.130Z,29.87
2023-01-19T10:44:25.286Z,28.03
2023-01-19T10:46:52.528Z,26.83
2023-01-19T10:49:27.435Z,26.73
2023-01-19T10:51:54.769Z,24.97
2023-01-19T10:54:22.032Z,27.93
2023-01-19T10:56:54.420Z,22.97
2023-01-19T10:59:38.179Z,19.63
2023-01-19T11:02:05.519Z,18.87
2023-01-19T11:04:32.819Z,33.53
2023-01-19T11:07:15.470Z,122.23
2023-01-19T11:09:42.606Z,280.83
2023-01-19T11:12:16.598Z,67.40
2023-01-19T11:14:43.804Z,52.33
2023-01-19T11:17:17.600Z,37.23
2023-01-19T11:19:44.833Z,59.67
2023-01-19T11:22:24.874Z,35.67
2023-01-19T11:24:52.202Z,25.13
2023-01-19T11:27:20.525Z,18.17
2023-01-19T11:29:48.514Z,18.13
2023-01-19T11:32:22.043Z,17.33
2023-01-19T11:34:49.278Z,15.80
2023-01-19T11:37:19.213Z,62.30
2023-01-19T11:39:46.991Z,34.73
2023-01-19T11:42:14.187Z,27.40
2023-01-19T11:44:45.841Z,26.77
2023-01-19T11:47:13.552Z,34.40
2023-01-19T11:49:59.145Z,28.50
2023-01-19T11:52:30.980Z,26.23
2023-01-19T11:54:59.454Z,29.10
2023-01-19T11:57:26.618Z,25.40
2023-01-19T11:59:54.523Z,37.50
2023-01-19T12:02:29.603Z,34.73
2023-01-19T12:04:57.912Z,37.60
2023-01-19T12:07:26.986Z,39.77
2023-01-19T12:09:55.241Z,40.77
2023-01-19T12:12:31.845Z,38.70
2023-01-19T12:15:18.466Z,49.43
2023-01-19T12:17:46.621Z,33.50
2023-01-19T12:20:15.121Z,23.60
2023-01-19T12:22:44.100Z,24.20
2023-01-19T12:25:14.881Z,25.17
2023-01-19T12:27:42.884Z,17.67
2023-01-19T12:30:20.606Z,18.60
2023-01-19T12:32:47.955Z,18.67
2023-01-19T12:35:33.621Z,17.67
2023-01-19T12:38:00.775Z,21.73
2023-01-19T12:40:28.900Z,23.43
2023-01-19T12:42:57.592Z,38.80
2023-01-19T12:45:25.770Z,25.87
2023-01-19T12:47:53.292Z,22.83
2023-01-19T12:50:21.203Z,31.20
2023-01-19T12:52:51.620Z,25.70
2023-01-19T12:55:23.527Z,25.53
2023-01-19T12:57:52.410Z,28.23
2023-01-19T13:00:22.578Z,22.67
2023-01-19T13:02:50.306Z,25.67
2023-01-19T13:05:18.561Z,24.93
2023-01-19T13:08:04.917Z,28.17
2023-01-19T13:10:50.479Z,22.77
2023-01-19T13:13:18.788Z,17.90
2023-01-19T13:15:45.995Z,20.27
2023-01-19T13:18:19.777Z,37.47
2023-01-19T13:21:13.883Z,36.97
2023-01-19T13:23:50.226Z,33.57
2023-01-19T13:26:17.941Z,42.33
2023-01-19T13:28:45.966Z,50.97
2023-01-19T13:31:13.569Z,50.03
2023-01-19T13:33:56.602Z,54.07
2023-01-19T13:36:34.131Z,66.07
2023-01-19T13:39:02.458Z,45.80
2023-01-19T13:41:30.421Z,87.40
2023-01-19T13:44:02.522Z,65.47
2023-01-19T13:46:29.776Z,53.30
2023-01-19T13:49:12.460Z,52.33
2023-01-19T13:51:39.614Z,51.10
2023-01-19T13:54:06.816Z,41.03
2023-01-19T13:56:34.005Z,47.47
2023-01-19T13:59:02.344Z,49.63
2023-01-19T14:01:31.188Z,40.47
2023-01-19T14:03:58.722Z,38.90
2023-01-19T14:06:33.128Z,40.57
2023-01-19T14:09:11.322Z,59.63
2023-01-19T14:11:38.621Z,79.57
2023-01-19T14:14:05.868Z,81.00
2023-01-19T14:16:33.135Z,66.87
2023-01-19T14:19:02.239Z,68.77
2023-01-19T14:21:37.874Z,70.97
2023-01-19T14:24:09.232Z,60.57
2023-01-19T14:26:36.387Z,86.80
2023-01-19T14:29:22.314Z,66.10
2023-01-19T14:31:50.435Z,92.03
2023-01-19T14:34:29.694Z,105.43
2023-01-19T14:36:56.847Z,88.43
2023-01-19T14:39:24.400Z,87.53
2023-01-19T14:41:54.604Z,86.20
2023-01-19T14:44:21.997Z,74.03
2023-01-19T14:46:49.268Z,53.27
2023-01-19T14:49:38.866Z,42.87
2023-01-19T14:52:07.404Z,32.37
2023-01-19T14:54:40.905Z,28.87
2023-01-19T14:57:11.730Z,34.47
2023-01-19T14:59:38.901Z,50.50
2023-01-19T15:02:06.375Z,61.07
2023-01-19T15:04:33.704Z,53.03
2023-01-19T15:07:00.867Z,49.37
2023-01-19T15:09:28.041Z,33.40
2023-01-19T15:11:55.177Z,39.20
2023-01-19T15:14:22.420Z,35.93
2023-01-19T15:16:49.722Z,34.03
2023-01-19T15:19:17.568Z,41.37
2023-01-19T15:21:46.819Z,47.73
2023-01-19T15:24:16.289Z,68.43
2023-01-19T15:26:44.788Z,57.03
2023-01-19T15:29:32.414Z,49.87
2023-01-19T15:31:59.594Z,47.13
2023-01-19T15:34:26.766Z,51.33
2023-01-19T15:36:54.002Z,51.67
2023-01-19T15:39:21.193Z,45.50
2023-01-19T15:41:48.356Z,49.17
2023-01-19T15:44:15.552Z,52.87
2023-01-19T15:46:42.691Z,52.10
2023-01-19T15:49:09.871Z,51.80
2023-01-19T15:51:37.117Z,47.83
2023-01-19T15:54:04.359Z,49.63
2023-01-19T15:56:31.675Z,24.77
2023-01-19T15:58:59.172Z,22.13
2023-01-19T16:01:31.379Z,20.97
2023-01-19T16:04:00.541Z,21.33
2023-01-19T16:06:27.896Z,38.60
2023-01-19T16:08:59.595Z,59.07
2023-01-19T16:11:26.780Z,93.00
2023-01-19T16:13:53.937Z,61.67
2023-01-19T16:16:21.998Z,44.97
2023-01-19T16:18:49.193Z,54.50
2023-01-19T16:21:16.360Z,57.27
2023-01-19T16:23:43.539Z,58.00
2023-01-19T16:26:29.444Z,46.40
2023-01-19T16:28:57.533Z,70.17
2023-01-19T16:31:24.775Z,60.50
2023-01-19T16:33:52.043Z,49.90
2023-01-19T16:36:23.556Z,21.73
2023-01-19T16:38:50.837Z,20.63
2023-01-19T16:41:18.187Z,66.23
2023-01-19T16:43:45.338Z,29.90
2023-01-19T16:46:33.836Z,39.67
2023-01-19T16:49:01.728Z,28.73
2023-01-19T16:51:29.127Z,24.80
2023-01-19T16:53:56.333Z,21.13
2023-01-19T16:56:23.529Z,18.90
2023-01-19T16:58:57.256Z,15.97
2023-01-19T17:01:24.814Z,23.67
2023-01-19T17:03:52.150Z,30.07
2023-01-19T17:06:20.326Z,31.80
2023-01-19T17:08:47.696Z,34.20
2023-01-19T17:11:20.659Z,34.10
2023-01-19T17:13:51.327Z,35.23
2023-01-19T17:16:18.575Z,47.07
2023-01-19T17:18:45.822Z,48.27
2023-01-19T17:21:14.164Z,22.77
2023-01-19T17:23:44.759Z,65.43
2023-01-19T17:26:12.014Z,47.10
2023-01-19T17:28:39.151Z,43.50
2023-01-19T17:31:11.055Z,41.60
2023-01-19T17:33:38.363Z,35.33
2023-01-19T17:36:05.977Z,38.17
2023-01-19T17:38:33.134Z,27.53
2023-01-19T17:41:00.383Z,21.67
2023-01-19T17:43:27.535Z,20.57
2023-01-19T17:46:13.543Z,18.87
2023-01-19T17:48:40.777Z,32.00
2023-01-19T17:51:12.016Z,33.47
2023-01-19T17:53:39.761Z,48.20
2023-01-19T17:56:10.747Z,40.63
2023-01-19T17:58:38.020Z,36.80
2023-01-19T18:01:15.317Z,43.60
2023-01-19T18:03:42.769Z,29.97
2023-01-19T18:06:10.162Z,24.60
2023-01-19T18:08:40.983Z,19.17
2023-01-19T18:11:08.237Z,20.10
2023-01-19T18:13:35.377Z,24.47
2023-01-19T18:16:03.140Z,27.77
2023-01-19T18:18:30.401Z,35.67
2023-01-19T18:21:00.959Z,30.17
2023-01-19T18:23:28.354Z,29.37
2023-01-19T18:26:01.655Z,24.53
2023-01-19T18:28:28.929Z,28.00
2023-01-19T18:30:56.221Z,27.00
2023-01-19T18:33:23.502Z,24.73
2023-01-19T18:35:50.752Z,25.10
2023-01-19T18:38:17.974Z,37.23
2023-01-19T18:40:45.191Z,40.97
2023-01-19T18:43:12.618Z,33.07
2023-01-19T18:45:41.820Z,36.43
2023-01-19T18:48:09.545Z,38.97
2023-01-19T18:50:38.037Z,37.30
2023-01-19T18:53:05.192Z,25.37
2023-01-19T18:55:32.405Z,20.23
2023-01-19T18:57:59.551Z,23.90
2023-01-19T19:00:26.744Z,22.67
2023-01-19T19:02:55.608Z,25.17
2023-01-19T19:05:23.065Z,24.33
2023-01-19T19:07:50.209Z,25.20
2023-01-19T19:10:17.523Z,29.87
2023-01-19T19:12:45.960Z,47.23
2023-01-19T19:15:13.941Z,39.23
2023-01-19T19:17:41.122Z,39.77
2023-01-19T19:20:08.553Z,49.17
2023-01-19T19:22:35.708Z,46.27
2023-01-19T19:25:02.897Z,57.23
2023-01-19T19:27:30.113Z,64.73
2023-01-19T19:29:57.288Z,91.07
2023-01-19T19:32:24.503Z,78.43
2023-01-19T19:34:56.618Z,36.63
2023-01-19T19:37:23.872Z,37.50
2023-01-19T19:39:51.818Z,42.43
2023-01-19T19:42:19.071Z,43.00
2023-01-19T19:44:46.261Z,48.33
2023-01-19T19:47:13.432Z,41.93
2023-01-19T19:49:40.950Z,32.73
2023-01-19T19:52:08.108Z,27.97
2023-01-19T19:54:35.318Z,24.60
2023-01-19T19:57:02.505Z,18.67
2023-01-19T19:59:29.664Z,25.77
2023-01-19T20:01:56.892Z,26.67
2023-01-19T20:04:25.340Z,27.00
2023-01-19T20:06:52.569Z,22.23
2023-01-19T20:09:19.754Z,24.40
2023-01-19T20:11:49.025Z,25.43
2023-01-19T20:14:16.409Z,29.50
2023-01-19T20:16:43.745Z,34.47
2023-01-19T20:19:10.989Z,37.27
2023-01-19T20:21:38.773Z,84.73
2023-01-19T20:24:07.042Z,30.27
2023-01-19T20:26:35.805Z,29.93
2023-01-19T20:29:06.171Z,45.00
2023-01-19T20:31:34.259Z,98.77
2023-01-19T20:34:01.926Z,80.07
2023-01-19T20:36:29.117Z,105.80
2023-01-19T20:38:56.529Z,83.67
2023-01-19T20:41:23.809Z,77.43
2023-01-19T20:43:50.988Z,67.63
2023-01-19T20:46:18.333Z,52.17
2023-01-19T20:48:50.802Z,52.03
2023-01-19T20:51:18.840Z,35.73
2023-01-19T20:53:46.055Z,38.20
2023-01-19T20:56:13.537Z,38.73
2023-01-19T20:58:40.806Z,40.43
2023-01-19T21:01:14.795Z,41.53
2023-01-19T21:03:42.212Z,31.80
2023-01-19T21:06:09.792Z,29.17
2023-01-19T21:08:37.147Z,31.00
2023-01-19T21:11:04.702Z,35.63
2023-01-19T21:13:32.134Z,27.67
2023-01-19T21:15:59.507Z,25.30
2023-01-19T21:18:27.906Z,25.07
2023-01-19T21:20:58.029Z,24.17
2023-01-19T21:23:25.743Z,35.03
2023-01-19T21:25:53.542Z,32.20
2023-01-19T21:28:21.688Z,30.87
2023-01-19T21:30:48.893Z,31.17
2023-01-19T21:33:16.926Z,40.20
2023-01-19T21:35:53.638Z,40.23
2023-01-19T21:38:20.827Z,34.77
2023-01-19T21:40:48.186Z,33.03
2023-01-19T21:43:15.479Z,30.53
2023-01-19T21:45:43.186Z,30.60
2023-01-19T21:48:10.477Z,30.47
2023-01-19T21:50:37.680Z,28.67
2023-01-19T21:53:07.692Z,28.23
2023-01-19T21:55:34.872Z,29.53
2023-01-19T21:58:02.044Z,27.60
2023-01-19T22:00:32.663Z,26.13
2023-01-19T22:03:04.119Z,32.80
2023-01-19T22:05:36.556Z,36.13
2023-01-19T22:08:04.278Z,36.27
2023-01-19T22:10:31.459Z,33.80
2023-01-19T22:12:58.718Z,53.77
2023-01-19T22:15:25.901Z,40.23
2023-01-19T22:17:53.061Z,39.93
2023-01-19T22:20:20.392Z,27.57
2023-01-19T22:22:47.594Z,32.03
2023-01-19T22:25:15.211Z,31.37
2023-01-19T22:27:42.633Z,33.60
2023-01-19T22:30:10.077Z,35.97
2023-01-19T22:32:37.322Z,49.73
2023-01-19T22:35:04.620Z,45.23
2023-01-19T22:37:35.411Z,27.37
2023-01-19T22:40:03.039Z,29.47
2023-01-19T22:42:30.232Z,25.10
2023-01-19T22:44:57.365Z,28.47
2023-01-19T22:47:24.531Z,32.37
2023-01-19T22:49:51.720Z,37.57
2023-01-19T22:52:18.883Z,44.13
2023-01-19T22:54:46.031Z,45.17
2023-01-19T22:57:13.208Z,43.97
2023-01-19T22:59:40.376Z,37.23
2023-01-19T23:02:09.204Z,32.47
2023-01-19T23:04:36.514Z,26.80
2023-01-19T23:07:03.691Z,24.10
2023-01-19T23:09:30.902Z,25.63
2023-01-19T23:11:58.730Z,26.43
2023-01-19T23:14:25.933Z,25.50
2023-01-19T23:16:53.107Z,28.43
2023-01-19T23:19:20.325Z,23.07
2023-01-19T23:21:47.481Z,23.43
2023-01-19T23:24:14.684Z,25.03
2023-01-19T23:26:41.894Z,21.73
2023-01-19T23:29:11.921Z,22.80
2023-01-19T23:31:39.429Z,20.77
2023-01-19T23:34:07.371Z,22.37
2023-01-19T23:36:35.197Z,25.10
2023-01-19T23:39:10.127Z,30.67
2023-01-19T23:41:37.288Z,22.43
2023-01-19T23:44:04.656Z,19.77
2023-01-19T23:46:32.028Z,17.83
2023-01-19T23:48:59.229Z,18.63
2023-01-19T23:51:29.910Z,19.03
2023-01-19T23:53:57.504Z,18.40
2023-01-19T23:56:25.723Z,34.53
2023-01-19T23:58:53.897Z,36.53
